sensor_id;sensor_type;location;lat;lon;timestamp;P1;durP1;ratioP1;P2;durP2;ratioP2
53961;SDS011;39868;53.398;6.564;2022-10-26T00:01:08;6.03;;;3.67;;
53961;SDS011;39868;53.398;6.564;2022-10-26T00:03:39;4.50;;;3.42;;
53961;SDS011;39868;53.398;6.564;2022-10-26T00:06:12;7.32;;;3.53;;
53961;SDS011;39868;53.398;6.564;2022-10-26T00:08:46;7.15;;;3.40;;
53961;SDS011;39868;53.398;6.564;2022-10-26T00:11:14;6.20;;;3.80;;
53961;SDS011;39868;53.398;6.564;2022-10-26T00:13:43;6.10;;;4.20;;
53961;SDS011;39868;53.398;6.564;2022-10-26T00:16:13;7.00;;;3.65;;
53961;SDS011;39868;53.398;6.564;2022-10-26T00:18:53;7.30;;;3.70;;
53961;SDS011;39868;53.398;6.564;2022-10-26T00:21:21;4.65;;;3.67;;
53961;SDS011;39868;53.398;6.564;2022-10-26T00:23:48;5.38;;;3.80;;
53961;SDS011;39868;53.398;6.564;2022-10-26T00:26:16;6.65;;;3.28;;
53961;SDS011;39868;53.398;6.564;2022-10-26T00:28:43;5.68;;;3.70;;
53961;SDS011;39868;53.398;6.564;2022-10-26T00:31:12;4.85;;;3.35;;
53961;SDS011;39868;53.398;6.564;2022-10-26T00:33:40;7.28;;;3.92;;
53961;SDS011;39868;53.398;6.564;2022-10-26T00:36:09;6.28;;;3.67;;
53961;SDS011;39868;53.398;6.564;2022-10-26T00:38:39;6.47;;;3.72;;
53961;SDS011;39868;53.398;6.564;2022-10-26T00:41:13;6.35;;;3.35;;
53961;SDS011;39868;53.398;6.564;2022-10-26T00:43:42;5.25;;;3.88;;
53961;SDS011;39868;53.398;6.564;2022-10-26T00:46:16;4.93;;;3.67;;
53961;SDS011;39868;53.398;6.564;2022-10-26T00:48:51;5.10;;;3.22;;
53961;SDS011;39868;53.398;6.564;2022-10-26T00:53:53;6.35;;;3.50;;
53961;SDS011;39868;53.398;6.564;2022-10-26T00:56:21;4.90;;;3.30;;
53961;SDS011;39868;53.398;6.564;2022-10-26T00:58:50;4.53;;;3.30;;
53961;SDS011;39868;53.398;6.564;2022-10-26T01:01:18;5.15;;;3.55;;
53961;SDS011;39868;53.398;6.564;2022-10-26T01:03:45;5.20;;;3.38;;
53961;SDS011;39868;53.398;6.564;2022-10-26T01:06:14;6.97;;;3.90;;
53961;SDS011;39868;53.398;6.564;2022-10-26T01:08:42;6.95;;;3.53;;
53961;SDS011;39868;53.398;6.564;2022-10-26T01:11:10;5.10;;;3.63;;
53961;SDS011;39868;53.398;6.564;2022-10-26T01:13:39;7.18;;;3.65;;
53961;SDS011;39868;53.398;6.564;2022-10-26T01:16:22;5.45;;;3.45;;
53961;SDS011;39868;53.398;6.564;2022-10-26T01:22:04;6.85;;;3.95;;
53961;SDS011;39868;53.398;6.564;2022-10-26T01:33:08;5.95;;;3.50;;
53961;SDS011;39868;53.398;6.564;2022-10-26T01:41:21;5.30;;;3.42;;
53961;SDS011;39868;53.398;6.564;2022-10-26T01:44:07;7.10;;;3.70;;
53961;SDS011;39868;53.398;6.564;2022-10-26T01:46:42;5.78;;;3.90;;
53961;SDS011;39868;53.398;6.564;2022-10-26T01:49:13;5.22;;;3.50;;
53961;SDS011;39868;53.398;6.564;2022-10-26T01:51:42;6.05;;;3.90;;
53961;SDS011;39868;53.398;6.564;2022-10-26T01:54:12;7.18;;;3.80;;
53961;SDS011;39868;53.398;6.564;2022-10-26T01:56:41;5.65;;;3.47;;
53961;SDS011;39868;53.398;6.564;2022-10-26T01:59:32;6.57;;;3.72;;
53961;SDS011;39868;53.398;6.564;2022-10-26T02:08:28;7.03;;;3.85;;
53961;SDS011;39868;53.398;6.564;2022-10-26T02:16:36;7.18;;;3.92;;
53961;SDS011;39868;53.398;6.564;2022-10-26T02:21:56;6.10;;;4.13;;
53961;SDS011;39868;53.398;6.564;2022-10-26T02:24:34;10.63;;;4.57;;
53961;SDS011;39868;53.398;6.564;2022-10-26T02:27:03;7.88;;;4.10;;
53961;SDS011;39868;53.398;6.564;2022-10-26T02:29:34;8.43;;;4.60;;
53961;SDS011;39868;53.398;6.564;2022-10-26T02:32:04;7.00;;;4.43;;
53961;SDS011;39868;53.398;6.564;2022-10-26T02:34:34;7.25;;;4.50;;
53961;SDS011;39868;53.398;6.564;2022-10-26T02:37:03;6.03;;;4.20;;
53961;SDS011;39868;53.398;6.564;2022-10-26T02:39:32;6.35;;;4.45;;
53961;SDS011;39868;53.398;6.564;2022-10-26T02:42:03;9.60;;;4.40;;
53961;SDS011;39868;53.398;6.564;2022-10-26T02:44:55;7.90;;;4.53;;
53961;SDS011;39868;53.398;6.564;2022-10-26T02:47:23;6.85;;;4.47;;
53961;SDS011;39868;53.398;6.564;2022-10-26T02:49:54;7.57;;;3.75;;
53961;SDS011;39868;53.398;6.564;2022-10-26T02:52:23;6.88;;;4.40;;
53961;SDS011;39868;53.398;6.564;2022-10-26T02:57:53;6.15;;;3.90;;
53961;SDS011;39868;53.398;6.564;2022-10-26T03:00:24;7.32;;;3.90;;
53961;SDS011;39868;53.398;6.564;2022-10-26T03:02:53;7.13;;;4.15;;
53961;SDS011;39868;53.398;6.564;2022-10-26T03:05:27;7.60;;;4.38;;
53961;SDS011;39868;53.398;6.564;2022-10-26T03:07:56;8.48;;;4.68;;
53961;SDS011;39868;53.398;6.564;2022-10-26T03:10:24;7.88;;;4.47;;
53961;SDS011;39868;53.398;6.564;2022-10-26T03:12:52;7.63;;;4.93;;
53961;SDS011;39868;53.398;6.564;2022-10-26T03:15:19;9.23;;;5.20;;
53961;SDS011;39868;53.398;6.564;2022-10-26T03:17:47;8.05;;;4.75;;
53961;SDS011;39868;53.398;6.564;2022-10-26T03:20:15;10.02;;;4.60;;
53961;SDS011;39868;53.398;6.564;2022-10-26T03:22:42;8.90;;;5.20;;
53961;SDS011;39868;53.398;6.564;2022-10-26T03:25:12;10.73;;;5.07;;
53961;SDS011;39868;53.398;6.564;2022-10-26T03:27:41;8.52;;;4.93;;
53961;SDS011;39868;53.398;6.564;2022-10-26T03:30:09;8.63;;;5.30;;
53961;SDS011;39868;53.398;6.564;2022-10-26T03:32:37;6.60;;;4.55;;
53961;SDS011;39868;53.398;6.564;2022-10-26T03:35:04;8.73;;;5.20;;
53961;SDS011;39868;53.398;6.564;2022-10-26T03:37:32;9.13;;;5.18;;
53961;SDS011;39868;53.398;6.564;2022-10-26T03:40:00;9.43;;;4.60;;
53961;SDS011;39868;53.398;6.564;2022-10-26T03:42:27;7.97;;;4.97;;
53961;SDS011;39868;53.398;6.564;2022-10-26T03:44:59;7.63;;;4.90;;
53961;SDS011;39868;53.398;6.564;2022-10-26T03:47:26;8.38;;;5.25;;
53961;SDS011;39868;53.398;6.564;2022-10-26T03:49:54;6.88;;;4.55;;
53961;SDS011;39868;53.398;6.564;2022-10-26T03:52:21;10.15;;;4.80;;
53961;SDS011;39868;53.398;6.564;2022-10-26T03:54:50;6.57;;;4.53;;
53961;SDS011;39868;53.398;6.564;2022-10-26T03:57:18;8.38;;;5.05;;
53961;SDS011;39868;53.398;6.564;2022-10-26T03:59:45;9.55;;;5.25;;
53961;SDS011;39868;53.398;6.564;2022-10-26T04:02:13;8.30;;;5.03;;
53961;SDS011;39868;53.398;6.564;2022-10-26T04:04:41;9.88;;;5.55;;
53961;SDS011;39868;53.398;6.564;2022-10-26T04:07:08;11.80;;;5.70;;
53961;SDS011;39868;53.398;6.564;2022-10-26T04:09:36;8.13;;;5.18;;
53961;SDS011;39868;53.398;6.564;2022-10-26T04:12:04;8.18;;;5.40;;
53961;SDS011;39868;53.398;6.564;2022-10-26T04:14:32;8.73;;;5.35;;
53961;SDS011;39868;53.398;6.564;2022-10-26T04:16:59;8.68;;;5.57;;
53961;SDS011;39868;53.398;6.564;2022-10-26T04:19:27;7.70;;;5.53;;
53961;SDS011;39868;53.398;6.564;2022-10-26T04:21:54;9.82;;;4.88;;
53961;SDS011;39868;53.398;6.564;2022-10-26T04:24:22;9.48;;;5.82;;
53961;SDS011;39868;53.398;6.564;2022-10-26T04:26:49;7.50;;;5.72;;
53961;SDS011;39868;53.398;6.564;2022-10-26T04:29:17;6.70;;;5.00;;
53961;SDS011;39868;53.398;6.564;2022-10-26T04:31:44;8.45;;;5.45;;
53961;SDS011;39868;53.398;6.564;2022-10-26T04:34:12;11.55;;;5.75;;
53961;SDS011;39868;53.398;6.564;2022-10-26T04:36:39;12.13;;;7.00;;
53961;SDS011;39868;53.398;6.564;2022-10-26T04:39:07;8.80;;;5.88;;
53961;SDS011;39868;53.398;6.564;2022-10-26T04:41:35;12.32;;;6.07;;
53961;SDS011;39868;53.398;6.564;2022-10-26T04:44:02;14.32;;;6.65;;
53961;SDS011;39868;53.398;6.564;2022-10-26T04:46:30;10.40;;;5.97;;
53961;SDS011;39868;53.398;6.564;2022-10-26T04:48:58;9.27;;;5.82;;
53961;SDS011;39868;53.398;6.564;2022-10-26T04:51:25;8.25;;;6.40;;
53961;SDS011;39868;53.398;6.564;2022-10-26T04:53:53;9.73;;;6.45;;
53961;SDS011;39868;53.398;6.564;2022-10-26T04:56:21;10.70;;;6.45;;
53961;SDS011;39868;53.398;6.564;2022-10-26T04:58:49;9.13;;;6.40;;
53961;SDS011;39868;53.398;6.564;2022-10-26T05:01:19;12.13;;;6.25;;
53961;SDS011;39868;53.398;6.564;2022-10-26T05:03:48;10.57;;;6.88;;
53961;SDS011;39868;53.398;6.564;2022-10-26T05:06:16;11.43;;;6.85;;
53961;SDS011;39868;53.398;6.564;2022-10-26T05:08:44;10.15;;;6.30;;
53961;SDS011;39868;53.398;6.564;2022-10-26T05:11:11;9.80;;;6.25;;
53961;SDS011;39868;53.398;6.564;2022-10-26T05:13:39;9.93;;;5.72;;
53961;SDS011;39868;53.398;6.564;2022-10-26T05:16:07;9.80;;;6.25;;
53961;SDS011;39868;53.398;6.564;2022-10-26T05:18:35;9.98;;;6.72;;
53961;SDS011;39868;53.398;6.564;2022-10-26T05:21:02;8.32;;;6.25;;
53961;SDS011;39868;53.398;6.564;2022-10-26T05:23:30;8.65;;;5.68;;
53961;SDS011;39868;53.398;6.564;2022-10-26T05:25:57;10.93;;;6.57;;
53961;SDS011;39868;53.398;6.564;2022-10-26T05:28:25;11.32;;;7.03;;
53961;SDS011;39868;53.398;6.564;2022-10-26T05:30:52;9.50;;;6.30;;
53961;SDS011;39868;53.398;6.564;2022-10-26T05:33:20;9.30;;;6.55;;
53961;SDS011;39868;53.398;6.564;2022-10-26T05:35:47;11.55;;;7.15;;
53961;SDS011;39868;53.398;6.564;2022-10-26T05:38:15;11.55;;;7.05;;
53961;SDS011;39868;53.398;6.564;2022-10-26T05:40:47;10.45;;;6.80;;
53961;SDS011;39868;53.398;6.564;2022-10-26T05:43:19;11.73;;;6.55;;
53961;SDS011;39868;53.398;6.564;2022-10-26T05:45:55;9.85;;;6.78;;
53961;SDS011;39868;53.398;6.564;2022-10-26T05:48:22;10.63;;;6.93;;
53961;SDS011;39868;53.398;6.564;2022-10-26T05:50:50;11.80;;;6.57;;
53961;SDS011;39868;53.398;6.564;2022-10-26T05:53:17;9.75;;;6.07;;
53961;SDS011;39868;53.398;6.564;2022-10-26T05:55:45;13.70;;;6.82;;
53961;SDS011;39868;53.398;6.564;2022-10-26T05:58:13;11.25;;;7.35;;
53961;SDS011;39868;53.398;6.564;2022-10-26T06:04:00;8.93;;;6.15;;
53961;SDS011;39868;53.398;6.564;2022-10-26T06:06:51;8.63;;;6.20;;
53961;SDS011;39868;53.398;6.564;2022-10-26T06:09:20;12.00;;;7.10;;
53961;SDS011;39868;53.398;6.564;2022-10-26T06:11:48;11.30;;;7.28;;
53961;SDS011;39868;53.398;6.564;2022-10-26T06:14:21;9.20;;;6.57;;
53961;SDS011;39868;53.398;6.564;2022-10-26T06:28:24;10.25;;;6.43;;
53961;SDS011;39868;53.398;6.564;2022-10-26T06:31:16;9.07;;;6.13;;
53961;SDS011;39868;53.398;6.564;2022-10-26T06:33:44;11.82;;;6.60;;
53961;SDS011;39868;53.398;6.564;2022-10-26T06:36:21;10.45;;;6.93;;
53961;SDS011;39868;53.398;6.564;2022-10-26T06:38:59;11.75;;;6.70;;
53961;SDS011;39868;53.398;6.564;2022-10-26T06:41:35;8.60;;;6.88;;
53961;SDS011;39868;53.398;6.564;2022-10-26T06:44:03;10.77;;;6.70;;
53961;SDS011;39868;53.398;6.564;2022-10-26T06:52:27;11.65;;;7.38;;
53961;SDS011;39868;53.398;6.564;2022-10-26T06:57:43;13.02;;;7.20;;
53961;SDS011;39868;53.398;6.564;2022-10-26T07:00:21;12.13;;;7.20;;
53961;SDS011;39868;53.398;6.564;2022-10-26T07:02:50;10.38;;;6.97;;
53961;SDS011;39868;53.398;6.564;2022-10-26T07:05:19;11.80;;;6.82;;
53961;SDS011;39868;53.398;6.564;2022-10-26T07:07:46;11.80;;;7.38;;
53961;SDS011;39868;53.398;6.564;2022-10-26T07:10:15;9.70;;;6.57;;
53961;SDS011;39868;53.398;6.564;2022-10-26T07:12:43;10.82;;;7.50;;
53961;SDS011;39868;53.398;6.564;2022-10-26T07:15:10;10.65;;;7.28;;
53961;SDS011;39868;53.398;6.564;2022-10-26T07:17:44;12.18;;;6.93;;
53961;SDS011;39868;53.398;6.564;2022-10-26T07:20:14;13.02;;;7.55;;
53961;SDS011;39868;53.398;6.564;2022-10-26T07:22:43;12.02;;;7.65;;
53961;SDS011;39868;53.398;6.564;2022-10-26T07:25:11;9.25;;;6.63;;
53961;SDS011;39868;53.398;6.564;2022-10-26T07:27:38;10.43;;;6.82;;
53961;SDS011;39868;53.398;6.564;2022-10-26T07:30:07;11.68;;;7.22;;
53961;SDS011;39868;53.398;6.564;2022-10-26T07:32:35;10.95;;;7.22;;
53961;SDS011;39868;53.398;6.564;2022-10-26T07:35:03;11.15;;;7.10;;
53961;SDS011;39868;53.398;6.564;2022-10-26T07:37:31;10.30;;;6.47;;
53961;SDS011;39868;53.398;6.564;2022-10-26T07:39:58;10.77;;;7.63;;
53961;SDS011;39868;53.398;6.564;2022-10-26T07:42:32;9.80;;;6.60;;
53961;SDS011;39868;53.398;6.564;2022-10-26T07:45:00;10.00;;;7.32;;
53961;SDS011;39868;53.398;6.564;2022-10-26T07:47:27;12.32;;;9.00;;
53961;SDS011;39868;53.398;6.564;2022-10-26T07:49:55;10.65;;;8.35;;
53961;SDS011;39868;53.398;6.564;2022-10-26T07:52:22;12.15;;;9.32;;
53961;SDS011;39868;53.398;6.564;2022-10-26T07:54:50;9.70;;;7.60;;
53961;SDS011;39868;53.398;6.564;2022-10-26T07:57:17;8.70;;;7.45;;
53961;SDS011;39868;53.398;6.564;2022-10-26T07:59:45;11.57;;;8.23;;
53961;SDS011;39868;53.398;6.564;2022-10-26T08:02:13;10.80;;;7.55;;
53961;SDS011;39868;53.398;6.564;2022-10-26T08:04:40;11.68;;;8.27;;
53961;SDS011;39868;53.398;6.564;2022-10-26T08:07:08;16.52;;;13.38;;
53961;SDS011;39868;53.398;6.564;2022-10-26T08:09:35;14.77;;;10.70;;
53961;SDS011;39868;53.398;6.564;2022-10-26T08:12:03;11.02;;;8.18;;
53961;SDS011;39868;53.398;6.564;2022-10-26T08:14:31;11.88;;;7.70;;
53961;SDS011;39868;53.398;6.564;2022-10-26T08:16:58;12.25;;;7.28;;
53961;SDS011;39868;53.398;6.564;2022-10-26T08:19:26;11.48;;;7.45;;
53961;SDS011;39868;53.398;6.564;2022-10-26T08:21:53;10.05;;;8.35;;
53961;SDS011;39868;53.398;6.564;2022-10-26T08:24:21;11.05;;;7.43;;
53961;SDS011;39868;53.398;6.564;2022-10-26T08:26:48;10.45;;;7.30;;
53961;SDS011;39868;53.398;6.564;2022-10-26T08:29:15;10.30;;;8.55;;
53961;SDS011;39868;53.398;6.564;2022-10-26T08:31:43;10.45;;;6.88;;
53961;SDS011;39868;53.398;6.564;2022-10-26T08:34:12;9.45;;;6.63;;
53961;SDS011;39868;53.398;6.564;2022-10-26T08:36:40;10.82;;;6.57;;
53961;SDS011;39868;53.398;6.564;2022-10-26T08:39:08;9.07;;;6.63;;
53961;SDS011;39868;53.398;6.564;2022-10-26T08:41:36;8.80;;;6.18;;
53961;SDS011;39868;53.398;6.564;2022-10-26T08:46:54;8.75;;;6.93;;
53961;SDS011;39868;53.398;6.564;2022-10-26T08:49:41;9.90;;;6.82;;
53961;SDS011;39868;53.398;6.564;2022-10-26T08:52:33;7.95;;;6.05;;
53961;SDS011;39868;53.398;6.564;2022-10-26T08:55:04;7.38;;;5.78;;
53961;SDS011;39868;53.398;6.564;2022-10-26T08:57:40;7.97;;;5.47;;
53961;SDS011;39868;53.398;6.564;2022-10-26T09:00:14;7.32;;;5.55;;
53961;SDS011;39868;53.398;6.564;2022-10-26T09:02:49;8.25;;;5.57;;
53961;SDS011;39868;53.398;6.564;2022-10-26T09:05:22;6.88;;;5.45;;
53961;SDS011;39868;53.398;6.564;2022-10-26T09:24:12;7.50;;;5.20;;
53961;SDS011;39868;53.398;6.564;2022-10-26T09:27:47;6.93;;;4.90;;
53961;SDS011;39868;53.398;6.564;2022-10-26T09:29:43;7.88;;;5.28;;
53961;SDS011;39868;53.398;6.564;2022-10-26T09:32:20;6.80;;;5.10;;
53961;SDS011;39868;53.398;6.564;2022-10-26T09:34:57;5.68;;;4.90;;
53961;SDS011;39868;53.398;6.564;2022-10-26T09:37:29;5.90;;;4.60;;
53961;SDS011;39868;53.398;6.564;2022-10-26T09:43:09;7.22;;;4.45;;
53961;SDS011;39868;53.398;6.564;2022-10-26T09:45:52;7.32;;;4.55;;
53961;SDS011;39868;53.398;6.564;2022-10-26T09:48:21;6.10;;;4.22;;
53961;SDS011;39868;53.398;6.564;2022-10-26T09:51:11;5.25;;;4.53;;
53961;SDS011;39868;53.398;6.564;2022-10-26T09:53:41;5.30;;;4.47;;
53961;SDS011;39868;53.398;6.564;2022-10-26T09:56:09;7.22;;;4.75;;
53961;SDS011;39868;53.398;6.564;2022-10-26T09:59:23;4.57;;;4.13;;
53961;SDS011;39868;53.398;6.564;2022-10-26T10:01:41;5.57;;;3.97;;
53961;SDS011;39868;53.398;6.564;2022-10-26T10:06:47;5.18;;;4.18;;
53961;SDS011;39868;53.398;6.564;2022-10-26T10:09:23;4.97;;;3.63;;
53961;SDS011;39868;53.398;6.564;2022-10-26T10:11:54;4.68;;;3.80;;
53961;SDS011;39868;53.398;6.564;2022-10-26T10:14:26;4.82;;;3.50;;
53961;SDS011;39868;53.398;6.564;2022-10-26T10:17:07;3.90;;;3.60;;
53961;SDS011;39868;53.398;6.564;2022-10-26T10:19:45;4.45;;;3.50;;
53961;SDS011;39868;53.398;6.564;2022-10-26T10:24:53;3.80;;;3.40;;
53961;SDS011;39868;53.398;6.564;2022-10-26T10:27:27;5.47;;;3.40;;
53961;SDS011;39868;53.398;6.564;2022-10-26T10:29:56;5.22;;;4.00;;
53961;SDS011;39868;53.398;6.564;2022-10-26T10:32:30;5.00;;;3.55;;
53961;SDS011;39868;53.398;6.564;2022-10-26T10:35:21;3.85;;;3.55;;
53961;SDS011;39868;53.398;6.564;2022-10-26T10:37:50;4.78;;;3.50;;
53961;SDS011;39868;53.398;6.564;2022-10-26T10:40:19;3.88;;;3.35;;
53961;SDS011;39868;53.398;6.564;2022-10-26T10:42:49;4.97;;;3.42;;
53961;SDS011;39868;53.398;6.564;2022-10-26T10:45:26;3.75;;;3.25;;
53961;SDS011;39868;53.398;6.564;2022-10-26T10:50:49;3.47;;;3.17;;
53961;SDS011;39868;53.398;6.564;2022-10-26T10:59:32;3.35;;;2.97;;
53961;SDS011;39868;53.398;6.564;2022-10-26T11:07:43;3.60;;;3.25;;
53961;SDS011;39868;53.398;6.564;2022-10-26T11:10:23;3.35;;;2.90;;
53961;SDS011;39868;53.398;6.564;2022-10-26T11:12:56;3.75;;;3.10;;
53961;SDS011;39868;53.398;6.564;2022-10-26T11:15:29;3.75;;;3.38;;
53961;SDS011;39868;53.398;6.564;2022-10-26T11:20:38;3.40;;;3.10;;
53961;SDS011;39868;53.398;6.564;2022-10-26T11:23:12;6.53;;;3.67;;
53961;SDS011;39868;53.398;6.564;2022-10-26T11:25:59;4.10;;;3.70;;
53961;SDS011;39868;53.398;6.564;2022-10-26T11:28:34;5.18;;;3.63;;
53961;SDS011;39868;53.398;6.564;2022-10-26T11:31:46;3.42;;;3.15;;
53961;SDS011;39868;53.398;6.564;2022-10-26T11:36:56;3.50;;;3.20;;
53961;SDS011;39868;53.398;6.564;2022-10-26T11:45:41;5.28;;;3.53;;
53961;SDS011;39868;53.398;6.564;2022-10-26T11:48:13;4.80;;;3.55;;
53961;SDS011;39868;53.398;6.564;2022-10-26T11:50:43;4.00;;;3.20;;
53961;SDS011;39868;53.398;6.564;2022-10-26T11:53:21;4.18;;;3.55;;
53961;SDS011;39868;53.398;6.564;2022-10-26T11:55:53;4.10;;;3.70;;
53961;SDS011;39868;53.398;6.564;2022-10-26T11:58:22;4.00;;;3.60;;
53961;SDS011;39868;53.398;6.564;2022-10-26T12:00:54;5.40;;;3.83;;
53961;SDS011;39868;53.398;6.564;2022-10-26T12:03:27;4.38;;;3.13;;
53961;SDS011;39868;53.398;6.564;2022-10-26T12:06:01;4.50;;;3.60;;
53961;SDS011;39868;53.398;6.564;2022-10-26T12:08:30;4.13;;;3.72;;
53961;SDS011;39868;53.398;6.564;2022-10-26T12:11:13;4.65;;;3.63;;
53961;SDS011;39868;53.398;6.564;2022-10-26T12:14:16;4.32;;;3.60;;
53961;SDS011;39868;53.398;6.564;2022-10-26T12:22:37;4.18;;;3.15;;
53961;SDS011;39868;53.398;6.564;2022-10-26T12:43:37;5.93;;;3.78;;
53961;SDS011;39868;53.398;6.564;2022-10-26T12:48:40;3.65;;;3.20;;
53961;SDS011;39868;53.398;6.564;2022-10-26T13:01:56;4.35;;;2.95;;
53961;SDS011;39868;53.398;6.564;2022-10-26T13:04:47;5.07;;;3.60;;
53961;SDS011;39868;53.398;6.564;2022-10-26T13:07:43;5.53;;;3.42;;
53961;SDS011;39868;53.398;6.564;2022-10-26T13:12:46;4.72;;;3.67;;
53961;SDS011;39868;53.398;6.564;2022-10-26T13:15:23;6.97;;;3.67;;
53961;SDS011;39868;53.398;6.564;2022-10-26T13:20:33;7.70;;;4.10;;
53961;SDS011;39868;53.398;6.564;2022-10-26T13:23:13;6.30;;;3.90;;
53961;SDS011;39868;53.398;6.564;2022-10-26T13:25:59;5.00;;;3.27;;
53961;SDS011;39868;53.398;6.564;2022-10-26T13:30:58;7.57;;;3.72;;
53961;SDS011;39868;53.398;6.564;2022-10-26T13:33:28;4.90;;;3.70;;
53961;SDS011;39868;53.398;6.564;2022-10-26T13:36:05;5.57;;;3.80;;
53961;SDS011;39868;53.398;6.564;2022-10-26T13:38:44;6.40;;;5.78;;
53961;SDS011;39868;53.398;6.564;2022-10-26T13:41:16;6.50;;;5.70;;
53961;SDS011;39868;53.398;6.564;2022-10-26T13:44:06;6.97;;;5.30;;
53961;SDS011;39868;53.398;6.564;2022-10-26T13:46:45;8.55;;;5.40;;
53961;SDS011;39868;53.398;6.564;2022-10-26T13:49:22;8.05;;;5.30;;
53961;SDS011;39868;53.398;6.564;2022-10-26T13:51:54;6.57;;;5.22;;
53961;SDS011;39868;53.398;6.564;2022-10-26T13:54:28;6.85;;;5.25;;
53961;SDS011;39868;53.398;6.564;2022-10-26T13:59:43;8.18;;;5.97;;
53961;SDS011;39868;53.398;6.564;2022-10-26T14:02:16;5.90;;;4.90;;
53961;SDS011;39868;53.398;6.564;2022-10-26T14:04:46;8.20;;;4.95;;
53961;SDS011;39868;53.398;6.564;2022-10-26T14:07:18;7.50;;;5.05;;
53961;SDS011;39868;53.398;6.564;2022-10-26T14:09:53;10.77;;;6.45;;
53961;SDS011;39868;53.398;6.564;2022-10-26T14:12:23;14.77;;;7.32;;
53961;SDS011;39868;53.398;6.564;2022-10-26T14:15:28;14.20;;;6.70;;
53961;SDS011;39868;53.398;6.564;2022-10-26T14:17:53;18.67;;;8.38;;
53961;SDS011;39868;53.398;6.564;2022-10-26T14:20:22;16.38;;;7.22;;
53961;SDS011;39868;53.398;6.564;2022-10-26T14:22:51;11.75;;;6.75;;
53961;SDS011;39868;53.398;6.564;2022-10-26T14:25:23;16.50;;;7.75;;
53961;SDS011;39868;53.398;6.564;2022-10-26T14:28:24;10.25;;;5.55;;
53961;SDS011;39868;53.398;6.564;2022-10-26T14:30:59;5.78;;;5.03;;
53961;SDS011;39868;53.398;6.564;2022-10-26T14:33:46;7.07;;;5.10;;
53961;SDS011;39868;53.398;6.564;2022-10-26T14:36:14;7.32;;;5.13;;
53961;SDS011;39868;53.398;6.564;2022-10-26T14:38:46;8.85;;;4.55;;
53961;SDS011;39868;53.398;6.564;2022-10-26T14:41:17;6.43;;;4.28;;
53961;SDS011;39868;53.398;6.564;2022-10-26T14:43:45;7.18;;;4.95;;
53961;SDS011;39868;53.398;6.564;2022-10-26T14:46:14;5.53;;;4.85;;
53961;SDS011;39868;53.398;6.564;2022-10-26T14:48:55;5.57;;;5.07;;
53961;SDS011;39868;53.398;6.564;2022-10-26T14:51:26;6.07;;;4.90;;
53961;SDS011;39868;53.398;6.564;2022-10-26T14:53:56;6.80;;;5.50;;
53961;SDS011;39868;53.398;6.564;2022-10-26T14:59:09;5.28;;;4.57;;
53961;SDS011;39868;53.398;6.564;2022-10-26T15:01:54;13.17;;;7.00;;
53961;SDS011;39868;53.398;6.564;2022-10-26T15:04:32;11.77;;;6.22;;
53961;SDS011;39868;53.398;6.564;2022-10-26T15:07:14;18.83;;;8.88;;
53961;SDS011;39868;53.398;6.564;2022-10-26T15:09:50;17.10;;;7.47;;
53961;SDS011;39868;53.398;6.564;2022-10-26T15:12:34;9.18;;;5.97;;
53961;SDS011;39868;53.398;6.564;2022-10-26T15:17:50;10.18;;;5.35;;
53961;SDS011;39868;53.398;6.564;2022-10-26T15:20:25;8.10;;;5.55;;
53961;SDS011;39868;53.398;6.564;2022-10-26T15:22:56;18.75;;;7.47;;
53961;SDS011;39868;53.398;6.564;2022-10-26T15:25:29;8.50;;;5.68;;
53961;SDS011;39868;53.398;6.564;2022-10-26T15:33:39;8.38;;;5.88;;
53961;SDS011;39868;53.398;6.564;2022-10-26T15:36:30;9.10;;;5.70;;
53961;SDS011;39868;53.398;6.564;2022-10-26T15:38:58;7.07;;;6.38;;
53961;SDS011;39868;53.398;6.564;2022-10-26T15:43:58;6.50;;;4.90;;
53961;SDS011;39868;53.398;6.564;2022-10-26T15:46:32;5.72;;;4.38;;
53961;SDS011;39868;53.398;6.564;2022-10-26T15:49:05;9.00;;;4.88;;
53961;SDS011;39868;53.398;6.564;2022-10-26T15:51:34;5.85;;;4.80;;
53961;SDS011;39868;53.398;6.564;2022-10-26T15:54:02;4.88;;;4.47;;
53961;SDS011;39868;53.398;6.564;2022-10-26T15:56:30;7.45;;;5.65;;
53961;SDS011;39868;53.398;6.564;2022-10-26T15:58:58;8.02;;;5.10;;
53961;SDS011;39868;53.398;6.564;2022-10-26T16:01:27;8.60;;;5.18;;
53961;SDS011;39868;53.398;6.564;2022-10-26T16:03:55;6.30;;;5.50;;
53961;SDS011;39868;53.398;6.564;2022-10-26T16:06:25;5.68;;;4.80;;
53961;SDS011;39868;53.398;6.564;2022-10-26T16:08:59;7.10;;;5.05;;
53961;SDS011;39868;53.398;6.564;2022-10-26T16:11:28;6.93;;;6.18;;
53961;SDS011;39868;53.398;6.564;2022-10-26T16:13:56;6.18;;;5.28;;
53961;SDS011;39868;53.398;6.564;2022-10-26T16:16:29;8.43;;;5.45;;
53961;SDS011;39868;53.398;6.564;2022-10-26T16:18:56;6.65;;;5.80;;
53961;SDS011;39868;53.398;6.564;2022-10-26T16:21:44;8.32;;;5.55;;
53961;SDS011;39868;53.398;6.564;2022-10-26T16:24:11;7.05;;;6.35;;
53961;SDS011;39868;53.398;6.564;2022-10-26T16:26:39;7.03;;;6.32;;
53961;SDS011;39868;53.398;6.564;2022-10-26T16:29:06;8.63;;;6.43;;
53961;SDS011;39868;53.398;6.564;2022-10-26T16:31:34;8.48;;;6.63;;
53961;SDS011;39868;53.398;6.564;2022-10-26T16:34:01;9.57;;;6.82;;
53961;SDS011;39868;53.398;6.564;2022-10-26T16:36:30;7.07;;;6.38;;
53961;SDS011;39868;53.398;6.564;2022-10-26T16:39:00;9.00;;;7.07;;
53961;SDS011;39868;53.398;6.564;2022-10-26T16:41:32;9.60;;;6.90;;
53961;SDS011;39868;53.398;6.564;2022-10-26T16:44:00;10.10;;;7.30;;
53961;SDS011;39868;53.398;6.564;2022-10-26T16:46:28;8.93;;;6.95;;
53961;SDS011;39868;53.398;6.564;2022-10-26T16:48:56;8.35;;;7.55;;
53961;SDS011;39868;53.398;6.564;2022-10-26T16:51:25;11.13;;;6.90;;
53961;SDS011;39868;53.398;6.564;2022-10-26T16:53:54;12.20;;;8.40;;
53961;SDS011;39868;53.398;6.564;2022-10-26T16:56:24;8.80;;;7.28;;
53961;SDS011;39868;53.398;6.564;2022-10-26T16:58:54;11.18;;;7.38;;
53961;SDS011;39868;53.398;6.564;2022-10-26T17:01:25;13.73;;;7.20;;
53961;SDS011;39868;53.398;6.564;2022-10-26T17:03:52;8.88;;;6.95;;
53961;SDS011;39868;53.398;6.564;2022-10-26T17:06:20;9.80;;;6.85;;
53961;SDS011;39868;53.398;6.564;2022-10-26T17:08:48;8.45;;;6.90;;
53961;SDS011;39868;53.398;6.564;2022-10-26T17:11:16;8.80;;;6.85;;
53961;SDS011;39868;53.398;6.564;2022-10-26T17:13:45;10.65;;;6.78;;
53961;SDS011;39868;53.398;6.564;2022-10-26T17:16:19;7.65;;;6.38;;
53961;SDS011;39868;53.398;6.564;2022-10-26T17:18:48;8.75;;;5.88;;
53961;SDS011;39868;53.398;6.564;2022-10-26T17:21:17;7.30;;;6.60;;
53961;SDS011;39868;53.398;6.564;2022-10-26T17:23:46;6.70;;;5.80;;
53961;SDS011;39868;53.398;6.564;2022-10-26T17:26:14;7.00;;;5.85;;
53961;SDS011;39868;53.398;6.564;2022-10-26T17:28:41;6.38;;;5.68;;
53961;SDS011;39868;53.398;6.564;2022-10-26T17:31:10;8.13;;;5.80;;
53961;SDS011;39868;53.398;6.564;2022-10-26T17:33:39;7.15;;;5.82;;
53961;SDS011;39868;53.398;6.564;2022-10-26T17:36:09;7.82;;;5.38;;
53961;SDS011;39868;53.398;6.564;2022-10-26T17:38:42;6.32;;;5.45;;
53961;SDS011;39868;53.398;6.564;2022-10-26T17:41:10;5.75;;;5.13;;
53961;SDS011;39868;53.398;6.564;2022-10-26T17:43:39;8.57;;;5.50;;
53961;SDS011;39868;53.398;6.564;2022-10-26T17:46:41;5.35;;;4.85;;
53961;SDS011;39868;53.398;6.564;2022-10-26T17:49:01;6.90;;;5.72;;
53961;SDS011;39868;53.398;6.564;2022-10-26T17:51:29;7.28;;;5.05;;
53961;SDS011;39868;53.398;6.564;2022-10-26T17:53:56;5.25;;;4.75;;
53961;SDS011;39868;53.398;6.564;2022-10-26T17:56:29;9.50;;;5.00;;
53961;SDS011;39868;53.398;6.564;2022-10-26T17:58:58;6.28;;;5.03;;
53961;SDS011;39868;53.398;6.564;2022-10-26T18:01:31;8.48;;;4.47;;
53961;SDS011;39868;53.398;6.564;2022-10-26T18:03:58;6.43;;;4.72;;
53961;SDS011;39868;53.398;6.564;2022-10-26T18:06:27;5.43;;;4.93;;
53961;SDS011;39868;53.398;6.564;2022-10-26T18:08:57;5.32;;;4.82;;